sensor_id;sensor_type;location;lat;lon;timestamp;P1;durP1;ratioP1;P2;durP2;ratioP2
2225;SDS011;1119;48.288;8.726;2023-04-24T00:00:40;3.63;;;3.43;;
2225;SDS011;1119;48.288;8.726;2023-04-24T00:03:30;3.73;;;3.53;;
2225;SDS011;1119;48.288;8.726;2023-04-24T00:06:18;5.77;;;3.70;;
2225;SDS011;1119;48.288;8.726;2023-04-24T00:09:06;4.20;;;4.00;;
2225;SDS011;1119;48.288;8.726;2023-04-24T00:11:57;4.00;;;3.80;;
2225;SDS011;1119;48.288;8.726;2023-04-24T00:14:44;4.73;;;4.43;;
2225;SDS011;1119;48.288;8.726;2023-04-24T00:17:32;3.97;;;3.77;;
2225;SDS011;1119;48.288;8.726;2023-04-24T00:20:19;4.37;;;4.10;;
2225;SDS011;1119;48.288;8.726;2023-04-24T00:23:08;3.70;;;3.50;;
2225;SDS011;1119;48.288;8.726;2023-04-24T00:25:55;3.90;;;3.60;;
2225;SDS011;1119;48.288;8.726;2023-04-24T00:28:44;3.87;;;3.67;;
2225;SDS011;1119;48.288;8.726;2023-04-24T00:31:32;3.87;;;3.60;;
2225;SDS011;1119;48.288;8.726;2023-04-24T00:34:20;3.73;;;3.53;;
2225;SDS011;1119;48.288;8.726;2023-04-24T00:37:08;6.53;;;3.30;;
2225;SDS011;1119;48.288;8.726;2023-04-24T00:39:57;3.70;;;3.40;;
2225;SDS011;1119;48.288;8.726;2023-04-24T00:42:44;3.10;;;2.90;;
2225;SDS011;1119;48.288;8.726;2023-04-24T00:45:34;3.63;;;3.43;;
2225;SDS011;1119;48.288;8.726;2023-04-24T00:48:21;3.57;;;3.37;;
2225;SDS011;1119;48.288;8.726;2023-04-24T00:51:11;2.97;;;2.87;;
2225;SDS011;1119;48.288;8.726;2023-04-24T00:53:59;4.00;;;3.80;;
2225;SDS011;1119;48.288;8.726;2023-04-24T00:56:47;3.43;;;3.23;;
2225;SDS011;1119;48.288;8.726;2023-04-24T00:59:37;3.80;;;3.60;;
2225;SDS011;1119;48.288;8.726;2023-04-24T01:02:28;3.57;;;3.37;;
2225;SDS011;1119;48.288;8.726;2023-04-24T01:05:15;4.97;;;4.57;;
2225;SDS011;1119;48.288;8.726;2023-04-24T01:08:04;3.63;;;3.53;;
2225;SDS011;1119;48.288;8.726;2023-04-24T01:10:52;4.03;;;3.93;;
2225;SDS011;1119;48.288;8.726;2023-04-24T01:13:40;3.50;;;3.33;;
2225;SDS011;1119;48.288;8.726;2023-04-24T01:16:29;3.80;;;3.60;;
2225;SDS011;1119;48.288;8.726;2023-04-24T01:19:19;3.93;;;3.73;;
2225;SDS011;1119;48.288;8.726;2023-04-24T01:22:11;3.57;;;3.37;;
2225;SDS011;1119;48.288;8.726;2023-04-24T01:25:00;3.80;;;3.60;;
2225;SDS011;1119;48.288;8.726;2023-04-24T01:27:49;3.63;;;3.50;;
2225;SDS011;1119;48.288;8.726;2023-04-24T01:30:38;3.63;;;3.43;;
2225;SDS011;1119;48.288;8.726;2023-04-24T01:33:25;4.00;;;3.80;;
2225;SDS011;1119;48.288;8.726;2023-04-24T01:36:13;4.03;;;3.83;;
2225;SDS011;1119;48.288;8.726;2023-04-24T01:39:02;4.00;;;3.70;;
2225;SDS011;1119;48.288;8.726;2023-04-24T01:41:51;3.40;;;3.20;;
2225;SDS011;1119;48.288;8.726;2023-04-24T01:44:39;4.47;;;4.07;;
2225;SDS011;1119;48.288;8.726;2023-04-24T01:47:27;3.60;;;3.40;;
2225;SDS011;1119;48.288;8.726;2023-04-24T01:50:16;3.90;;;3.70;;
2225;SDS011;1119;48.288;8.726;2023-04-24T01:53:04;3.80;;;3.60;;
2225;SDS011;1119;48.288;8.726;2023-04-24T01:55:54;3.97;;;3.77;;
2225;SDS011;1119;48.288;8.726;2023-04-24T01:58:44;3.73;;;3.10;;
2225;SDS011;1119;48.288;8.726;2023-04-24T02:01:35;4.80;;;3.40;;
2225;SDS011;1119;48.288;8.726;2023-04-24T02:04:23;4.00;;;3.80;;
2225;SDS011;1119;48.288;8.726;2023-04-24T02:07:11;3.90;;;3.60;;
2225;SDS011;1119;48.288;8.726;2023-04-24T02:10:00;3.60;;;3.40;;
2225;SDS011;1119;48.288;8.726;2023-04-24T02:16:01;3.60;;;3.50;;
2225;SDS011;1119;48.288;8.726;2023-04-24T02:18:50;4.50;;;4.20;;
2225;SDS011;1119;48.288;8.726;2023-04-24T02:21:38;4.20;;;4.00;;
2225;SDS011;1119;48.288;8.726;2023-04-24T02:24:28;4.50;;;4.20;;
2225;SDS011;1119;48.288;8.726;2023-04-24T02:27:15;6.83;;;4.30;;
2225;SDS011;1119;48.288;8.726;2023-04-24T02:30:04;4.80;;;4.60;;
2225;SDS011;1119;48.288;8.726;2023-04-24T02:32:54;4.73;;;4.47;;
2225;SDS011;1119;48.288;8.726;2023-04-24T02:35:42;3.83;;;3.63;;
2225;SDS011;1119;48.288;8.726;2023-04-24T02:38:29;4.57;;;4.33;;
2225;SDS011;1119;48.288;8.726;2023-04-24T02:41:17;3.80;;;3.60;;
2225;SDS011;1119;48.288;8.726;2023-04-24T02:44:05;3.90;;;3.63;;
2225;SDS011;1119;48.288;8.726;2023-04-24T02:46:52;5.20;;;4.80;;
2225;SDS011;1119;48.288;8.726;2023-04-24T02:49:41;4.87;;;4.57;;
2225;SDS011;1119;48.288;8.726;2023-04-24T02:52:30;4.57;;;4.30;;
2225;SDS011;1119;48.288;8.726;2023-04-24T02:55:18;4.20;;;3.90;;
2225;SDS011;1119;48.288;8.726;2023-04-24T02:58:05;4.77;;;4.47;;
2225;SDS011;1119;48.288;8.726;2023-04-24T03:00:53;6.73;;;4.40;;
2225;SDS011;1119;48.288;8.726;2023-04-24T03:03:42;3.80;;;3.60;;
2225;SDS011;1119;48.288;8.726;2023-04-24T03:06:30;4.73;;;4.43;;
2225;SDS011;1119;48.288;8.726;2023-04-24T03:09:21;4.30;;;3.90;;
2225;SDS011;1119;48.288;8.726;2023-04-24T03:12:09;3.43;;;3.23;;
2225;SDS011;1119;48.288;8.726;2023-04-24T03:14:56;4.50;;;4.20;;
2225;SDS011;1119;48.288;8.726;2023-04-24T03:17:44;3.67;;;3.43;;
2225;SDS011;1119;48.288;8.726;2023-04-24T03:20:32;4.03;;;3.73;;
2225;SDS011;1119;48.288;8.726;2023-04-24T03:23:21;4.10;;;3.80;;
2225;SDS011;1119;48.288;8.726;2023-04-24T03:26:08;4.60;;;4.30;;
2225;SDS011;1119;48.288;8.726;2023-04-24T03:29:01;4.27;;;4.07;;
2225;SDS011;1119;48.288;8.726;2023-04-24T03:31:49;3.93;;;3.63;;
2225;SDS011;1119;48.288;8.726;2023-04-24T03:34:37;4.50;;;4.20;;
2225;SDS011;1119;48.288;8.726;2023-04-24T03:37:26;5.40;;;4.90;;
2225;SDS011;1119;48.288;8.726;2023-04-24T03:40:27;5.60;;;5.20;;
2225;SDS011;1119;48.288;8.726;2023-04-24T03:43:16;5.57;;;5.17;;
2225;SDS011;1119;48.288;8.726;2023-04-24T03:46:04;5.37;;;5.07;;
2225;SDS011;1119;48.288;8.726;2023-04-24T03:48:57;5.80;;;5.50;;
2225;SDS011;1119;48.288;8.726;2023-04-24T03:51:49;4.47;;;4.27;;
2225;SDS011;1119;48.288;8.726;2023-04-24T03:54:41;4.77;;;4.47;;
2225;SDS011;1119;48.288;8.726;2023-04-24T03:57:32;5.17;;;4.73;;
2225;SDS011;1119;48.288;8.726;2023-04-24T04:00:31;5.50;;;5.20;;
2225;SDS011;1119;48.288;8.726;2023-04-24T04:03:39;5.37;;;5.07;;
2225;SDS011;1119;48.288;8.726;2023-04-24T04:06:26;6.43;;;6.03;;
2225;SDS011;1119;48.288;8.726;2023-04-24T04:09:16;5.67;;;5.37;;
2225;SDS011;1119;48.288;8.726;2023-04-24T04:12:05;5.57;;;5.07;;
2225;SDS011;1119;48.288;8.726;2023-04-24T04:14:55;5.13;;;4.73;;
2225;SDS011;1119;48.288;8.726;2023-04-24T04:17:43;4.90;;;4.60;;
2225;SDS011;1119;48.288;8.726;2023-04-24T04:20:31;4.93;;;4.63;;
2225;SDS011;1119;48.288;8.726;2023-04-24T04:23:19;5.10;;;4.70;;
2225;SDS011;1119;48.288;8.726;2023-04-24T04:26:23;3.83;;;3.63;;
2225;SDS011;1119;48.288;8.726;2023-04-24T04:29:32;5.10;;;4.80;;
2225;SDS011;1119;48.288;8.726;2023-04-24T04:32:22;5.23;;;4.93;;
2225;SDS011;1119;48.288;8.726;2023-04-24T04:35:10;5.20;;;5.00;;
2225;SDS011;1119;48.288;8.726;2023-04-24T04:37:58;5.40;;;5.00;;
2225;SDS011;1119;48.288;8.726;2023-04-24T04:41:02;4.60;;;4.30;;
2225;SDS011;1119;48.288;8.726;2023-04-24T04:43:52;4.63;;;4.23;;
2225;SDS011;1119;48.288;8.726;2023-04-24T04:46:40;5.33;;;4.93;;
2225;SDS011;1119;48.288;8.726;2023-04-24T04:49:40;4.40;;;4.10;;
2225;SDS011;1119;48.288;8.726;2023-04-24T04:52:36;4.60;;;4.37;;
2225;SDS011;1119;48.288;8.726;2023-04-24T04:55:34;4.50;;;4.20;;
2225;SDS011;1119;48.288;8.726;2023-04-24T04:58:28;6.00;;;5.63;;
2225;SDS011;1119;48.288;8.726;2023-04-24T05:01:18;6.43;;;5.93;;
2225;SDS011;1119;48.288;8.726;2023-04-24T05:04:08;5.60;;;5.10;;
2225;SDS011;1119;48.288;8.726;2023-04-24T05:06:58;5.60;;;5.10;;
2225;SDS011;1119;48.288;8.726;2023-04-24T05:09:49;6.13;;;4.87;;
2225;SDS011;1119;48.288;8.726;2023-04-24T05:12:37;4.70;;;4.43;;
2225;SDS011;1119;48.288;8.726;2023-04-24T05:15:26;4.37;;;4.17;;
2225;SDS011;1119;48.288;8.726;2023-04-24T05:18:14;5.23;;;4.97;;
2225;SDS011;1119;48.288;8.726;2023-04-24T05:21:02;5.17;;;4.90;;
2225;SDS011;1119;48.288;8.726;2023-04-24T05:23:51;5.03;;;4.63;;
2225;SDS011;1119;48.288;8.726;2023-04-24T05:26:59;5.37;;;4.87;;
2225;SDS011;1119;48.288;8.726;2023-04-24T05:29:53;4.30;;;4.00;;
2225;SDS011;1119;48.288;8.726;2023-04-24T05:32:41;4.63;;;4.37;;
2225;SDS011;1119;48.288;8.726;2023-04-24T05:35:29;5.43;;;3.80;;
2225;SDS011;1119;48.288;8.726;2023-04-24T05:38:16;4.13;;;3.93;;
2225;SDS011;1119;48.288;8.726;2023-04-24T05:41:06;4.83;;;4.07;;
2225;SDS011;1119;48.288;8.726;2023-04-24T05:43:55;4.37;;;4.17;;
2225;SDS011;1119;48.288;8.726;2023-04-24T05:46:42;4.90;;;4.50;;
2225;SDS011;1119;48.288;8.726;2023-04-24T05:49:31;3.83;;;3.50;;
2225;SDS011;1119;48.288;8.726;2023-04-24T05:52:19;4.20;;;3.90;;
2225;SDS011;1119;48.288;8.726;2023-04-24T05:55:09;6.47;;;5.80;;
2225;SDS011;1119;48.288;8.726;2023-04-24T05:58:00;4.00;;;3.70;;
2225;SDS011;1119;48.288;8.726;2023-04-24T06:00:47;4.73;;;4.37;;
2225;SDS011;1119;48.288;8.726;2023-04-24T06:03:37;5.07;;;4.67;;
2225;SDS011;1119;48.288;8.726;2023-04-24T06:06:25;4.33;;;3.93;;
2225;SDS011;1119;48.288;8.726;2023-04-24T06:09:14;4.93;;;4.43;;
2225;SDS011;1119;48.288;8.726;2023-04-24T06:12:04;5.50;;;5.10;;
2225;SDS011;1119;48.288;8.726;2023-04-24T06:15:08;6.63;;;6.13;;
2225;SDS011;1119;48.288;8.726;2023-04-24T06:18:10;4.17;;;3.87;;
2225;SDS011;1119;48.288;8.726;2023-04-24T06:20:59;5.73;;;5.33;;
2225;SDS011;1119;48.288;8.726;2023-04-24T06:23:47;4.87;;;4.50;;
2225;SDS011;1119;48.288;8.726;2023-04-24T06:26:35;5.10;;;4.73;;
2225;SDS011;1119;48.288;8.726;2023-04-24T06:29:23;5.10;;;4.80;;
2225;SDS011;1119;48.288;8.726;2023-04-24T06:32:12;4.60;;;4.30;;
2225;SDS011;1119;48.288;8.726;2023-04-24T06:34:59;5.93;;;5.53;;
2225;SDS011;1119;48.288;8.726;2023-04-24T06:37:47;5.60;;;5.20;;
2225;SDS011;1119;48.288;8.726;2023-04-24T06:40:35;4.83;;;4.53;;
2225;SDS011;1119;48.288;8.726;2023-04-24T06:43:22;4.83;;;4.43;;
2225;SDS011;1119;48.288;8.726;2023-04-24T06:46:10;4.83;;;4.43;;
2225;SDS011;1119;48.288;8.726;2023-04-24T06:48:59;5.53;;;5.13;;
2225;SDS011;1119;48.288;8.726;2023-04-24T06:51:47;4.87;;;4.47;;
2225;SDS011;1119;48.288;8.726;2023-04-24T06:54:35;5.03;;;4.63;;
2225;SDS011;1119;48.288;8.726;2023-04-24T06:57:22;5.27;;;4.77;;
2225;SDS011;1119;48.288;8.726;2023-04-24T07:00:10;7.03;;;6.33;;
2225;SDS011;1119;48.288;8.726;2023-04-24T07:02:59;6.53;;;6.13;;
2225;SDS011;1119;48.288;8.726;2023-04-24T07:05:49;6.13;;;5.67;;
2225;SDS011;1119;48.288;8.726;2023-04-24T07:08:39;5.57;;;5.07;;
2225;SDS011;1119;48.288;8.726;2023-04-24T07:11:27;6.37;;;5.87;;
2225;SDS011;1119;48.288;8.726;2023-04-24T07:14:17;5.27;;;4.77;;
2225;SDS011;1119;48.288;8.726;2023-04-24T07:17:06;15.27;;;13.70;;
2225;SDS011;1119;48.288;8.726;2023-04-24T07:19:54;5.80;;;5.30;;
2225;SDS011;1119;48.288;8.726;2023-04-24T07:22:43;5.53;;;5.03;;
2225;SDS011;1119;48.288;8.726;2023-04-24T07:25:30;6.50;;;5.00;;
2225;SDS011;1119;48.288;8.726;2023-04-24T07:28:18;5.30;;;5.00;;
2225;SDS011;1119;48.288;8.726;2023-04-24T07:31:06;4.83;;;4.43;;
2225;SDS011;1119;48.288;8.726;2023-04-24T07:33:54;5.40;;;4.97;;
2225;SDS011;1119;48.288;8.726;2023-04-24T07:36:43;4.40;;;4.10;;
2225;SDS011;1119;48.288;8.726;2023-04-24T07:39:32;4.60;;;4.30;;
2225;SDS011;1119;48.288;8.726;2023-04-24T07:42:20;4.87;;;4.50;;
2225;SDS011;1119;48.288;8.726;2023-04-24T07:45:07;5.60;;;5.10;;
2225;SDS011;1119;48.288;8.726;2023-04-24T07:47:55;5.10;;;4.70;;
2225;SDS011;1119;48.288;8.726;2023-04-24T07:50:43;4.30;;;4.03;;
2225;SDS011;1119;48.288;8.726;2023-04-24T07:53:32;4.83;;;4.53;;
2225;SDS011;1119;48.288;8.726;2023-04-24T07:56:21;4.13;;;3.83;;
2225;SDS011;1119;48.288;8.726;2023-04-24T07:59:09;5.10;;;4.77;;
2225;SDS011;1119;48.288;8.726;2023-04-24T08:01:57;5.07;;;4.70;;
2225;SDS011;1119;48.288;8.726;2023-04-24T08:04:46;4.63;;;4.40;;
2225;SDS011;1119;48.288;8.726;2023-04-24T08:07:34;4.50;;;4.20;;
2225;SDS011;1119;48.288;8.726;2023-04-24T08:10:22;5.00;;;4.60;;
2225;SDS011;1119;48.288;8.726;2023-04-24T08:13:12;6.07;;;4.50;;
2225;SDS011;1119;48.288;8.726;2023-04-24T08:16:00;4.80;;;4.47;;
2225;SDS011;1119;48.288;8.726;2023-04-24T08:18:47;4.67;;;4.37;;
2225;SDS011;1119;48.288;8.726;2023-04-24T08:21:35;5.23;;;4.83;;
2225;SDS011;1119;48.288;8.726;2023-04-24T08:24:23;5.23;;;4.83;;
2225;SDS011;1119;48.288;8.726;2023-04-24T08:27:10;4.27;;;3.87;;
2225;SDS011;1119;48.288;8.726;2023-04-24T08:30:00;5.17;;;4.77;;
2225;SDS011;1119;48.288;8.726;2023-04-24T08:32:47;6.10;;;5.63;;
2225;SDS011;1119;48.288;8.726;2023-04-24T08:35:35;5.50;;;5.10;;
2225;SDS011;1119;48.288;8.726;2023-04-24T08:38:23;6.30;;;5.70;;
2225;SDS011;1119;48.288;8.726;2023-04-24T08:41:11;5.73;;;5.27;;
2225;SDS011;1119;48.288;8.726;2023-04-24T08:44:01;4.70;;;4.40;;
2225;SDS011;1119;48.288;8.726;2023-04-24T08:46:50;5.37;;;5.00;;
2225;SDS011;1119;48.288;8.726;2023-04-24T08:49:38;4.57;;;4.27;;
2225;SDS011;1119;48.288;8.726;2023-04-24T08:52:27;6.03;;;5.63;;
2225;SDS011;1119;48.288;8.726;2023-04-24T08:55:17;5.20;;;4.80;;
2225;SDS011;1119;48.288;8.726;2023-04-24T08:58:05;5.70;;;5.30;;
2225;SDS011;1119;48.288;8.726;2023-04-24T09:00:54;5.90;;;5.50;;
2225;SDS011;1119;48.288;8.726;2023-04-24T09:03:46;11.27;;;6.00;;
2225;SDS011;1119;48.288;8.726;2023-04-24T09:06:35;11.30;;;10.17;;
2225;SDS011;1119;48.288;8.726;2023-04-24T09:09:24;6.07;;;5.63;;
2225;SDS011;1119;48.288;8.726;2023-04-24T09:12:12;6.57;;;5.87;;
2225;SDS011;1119;48.288;8.726;2023-04-24T09:15:01;6.80;;;6.30;;
2225;SDS011;1119;48.288;8.726;2023-04-24T09:17:50;6.60;;;6.17;;
2225;SDS011;1119;48.288;8.726;2023-04-24T09:23:57;14.60;;;6.10;;
2225;SDS011;1119;48.288;8.726;2023-04-24T09:26:55;6.50;;;6.00;;
2225;SDS011;1119;48.288;8.726;2023-04-24T09:29:53;5.57;;;5.10;;
2225;SDS011;1119;48.288;8.726;2023-04-24T09:32:41;7.93;;;7.20;;
2225;SDS011;1119;48.288;8.726;2023-04-24T09:35:31;7.83;;;7.10;;
2225;SDS011;1119;48.288;8.726;2023-04-24T09:38:21;7.40;;;6.90;;
2225;SDS011;1119;48.288;8.726;2023-04-24T09:41:20;6.83;;;6.27;;
2225;SDS011;1119;48.288;8.726;2023-04-24T09:44:10;6.60;;;6.00;;
2225;SDS011;1119;48.288;8.726;2023-04-24T09:47:00;6.03;;;5.53;;
2225;SDS011;1119;48.288;8.726;2023-04-24T09:49:48;6.80;;;6.23;;
2225;SDS011;1119;48.288;8.726;2023-04-24T09:52:36;7.77;;;7.13;;
2225;SDS011;1119;48.288;8.726;2023-04-24T09:55:29;5.70;;;5.30;;
2225;SDS011;1119;48.288;8.726;2023-04-24T09:58:17;6.70;;;6.20;;
2225;SDS011;1119;48.288;8.726;2023-04-24T10:01:06;5.70;;;5.30;;
2225;SDS011;1119;48.288;8.726;2023-04-24T10:03:54;17.47;;;15.33;;
2225;SDS011;1119;48.288;8.726;2023-04-24T10:06:42;16.27;;;13.97;;
2225;SDS011;1119;48.288;8.726;2023-04-24T10:09:30;22.63;;;17.93;;
2225;SDS011;1119;48.288;8.726;2023-04-24T10:12:19;70.70;;;41.43;;
2225;SDS011;1119;48.288;8.726;2023-04-24T10:15:09;13.87;;;9.57;;
2225;SDS011;1119;48.288;8.726;2023-04-24T10:17:59;58.47;;;28.63;;
2225;SDS011;1119;48.288;8.726;2023-04-24T10:20:47;29.53;;;16.80;;
2225;SDS011;1119;48.288;8.726;2023-04-24T10:23:37;5.47;;;5.17;;
2225;SDS011;1119;48.288;8.726;2023-04-24T10:26:33;4.93;;;4.50;;
2225;SDS011;1119;48.288;8.726;2023-04-24T10:29:25;4.90;;;4.60;;
2225;SDS011;1119;48.288;8.726;2023-04-24T10:32:15;5.10;;;4.80;;
2225;SDS011;1119;48.288;8.726;2023-04-24T10:35:02;5.77;;;5.37;;
2225;SDS011;1119;48.288;8.726;2023-04-24T10:37:54;7.47;;;6.93;;
2225;SDS011;1119;48.288;8.726;2023-04-24T10:40:47;9.03;;;7.30;;
2225;SDS011;1119;48.288;8.726;2023-04-24T10:43:35;7.77;;;7.20;;
2225;SDS011;1119;48.288;8.726;2023-04-24T10:46:25;10.20;;;8.87;;
2225;SDS011;1119;48.288;8.726;2023-04-24T10:49:18;5.83;;;5.40;;
2225;SDS011;1119;48.288;8.726;2023-04-24T10:52:15;10.43;;;9.63;;
2225;SDS011;1119;48.288;8.726;2023-04-24T10:55:04;5.40;;;5.00;;
2225;SDS011;1119;48.288;8.726;2023-04-24T10:58:01;5.87;;;5.30;;
2225;SDS011;1119;48.288;8.726;2023-04-24T11:00:55;5.97;;;5.57;;
2225;SDS011;1119;48.288;8.726;2023-04-24T11:03:50;20.00;;;18.43;;
2225;SDS011;1119;48.288;8.726;2023-04-24T11:06:43;7.10;;;6.60;;
2225;SDS011;1119;48.288;8.726;2023-04-24T11:09:31;6.37;;;5.97;;
2225;SDS011;1119;48.288;8.726;2023-04-24T11:12:22;5.93;;;5.40;;
2225;SDS011;1119;48.288;8.726;2023-04-24T11:15:15;5.60;;;5.13;;
2225;SDS011;1119;48.288;8.726;2023-04-24T11:18:05;6.53;;;6.03;;
2225;SDS011;1119;48.288;8.726;2023-04-24T11:20:55;10.17;;;9.33;;
2225;SDS011;1119;48.288;8.726;2023-04-24T11:23:43;7.07;;;6.57;;
2225;SDS011;1119;48.288;8.726;2023-04-24T11:26:32;6.43;;;5.83;;
2225;SDS011;1119;48.288;8.726;2023-04-24T11:29:38;14.63;;;9.63;;
2225;SDS011;1119;48.288;8.726;2023-04-24T11:32:33;7.17;;;6.63;;
2225;SDS011;1119;48.288;8.726;2023-04-24T11:35:23;11.67;;;10.57;;
2225;SDS011;1119;48.288;8.726;2023-04-24T11:38:12;8.90;;;8.00;;
2225;SDS011;1119;48.288;8.726;2023-04-24T11:41:01;10.93;;;6.73;;
2225;SDS011;1119;48.288;8.726;2023-04-24T11:43:50;6.27;;;5.77;;
2225;SDS011;1119;48.288;8.726;2023-04-24T11:46:39;10.97;;;6.43;;
2225;SDS011;1119;48.288;8.726;2023-04-24T11:49:27;6.10;;;5.60;;
2225;SDS011;1119;48.288;8.726;2023-04-24T11:52:15;11.77;;;10.20;;
2225;SDS011;1119;48.288;8.726;2023-04-24T11:55:05;5.83;;;5.33;;
2225;SDS011;1119;48.288;8.726;2023-04-24T11:57:55;9.07;;;7.87;;
2225;SDS011;1119;48.288;8.726;2023-04-24T12:00:44;6.50;;;5.80;;
2225;SDS011;1119;48.288;8.726;2023-04-24T12:03:32;7.30;;;6.70;;
2225;SDS011;1119;48.288;8.726;2023-04-24T12:06:19;7.23;;;6.53;;
2225;SDS011;1119;48.288;8.726;2023-04-24T12:09:08;7.03;;;5.73;;
2225;SDS011;1119;48.288;8.726;2023-04-24T12:11:59;12.40;;;6.73;;
2225;SDS011;1119;48.288;8.726;2023-04-24T12:14:47;8.33;;;6.43;;
2225;SDS011;1119;48.288;8.726;2023-04-24T12:17:35;8.13;;;7.33;;
2225;SDS011;1119;48.288;8.726;2023-04-24T12:20:28;7.00;;;6.30;;
2225;SDS011;1119;48.288;8.726;2023-04-24T12:23:33;6.50;;;5.20;;
2225;SDS011;1119;48.288;8.726;2023-04-24T12:26:21;6.97;;;5.30;;
2225;SDS011;1119;48.288;8.726;2023-04-24T12:29:11;6.13;;;5.53;;
2225;SDS011;1119;48.288;8.726;2023-04-24T12:32:15;9.47;;;7.90;;
2225;SDS011;1119;48.288;8.726;2023-04-24T12:35:03;6.47;;;5.87;;
2225;SDS011;1119;48.288;8.726;2023-04-24T12:37:52;6.10;;;5.50;;
2225;SDS011;1119;48.288;8.726;2023-04-24T12:40:41;5.77;;;5.20;;
2225;SDS011;1119;48.288;8.726;2023-04-24T12:43:29;6.90;;;6.13;;
2225;SDS011;1119;48.288;8.726;2023-04-24T12:46:19;7.30;;;6.20;;
2225;SDS011;1119;48.288;8.726;2023-04-24T12:49:06;6.27;;;5.63;;
2225;SDS011;1119;48.288;8.726;2023-04-24T12:51:54;8.07;;;7.27;;
2225;SDS011;1119;48.288;8.726;2023-04-24T12:54:42;11.93;;;10.73;;
2225;SDS011;1119;48.288;8.726;2023-04-24T12:57:30;8.93;;;6.90;;
2225;SDS011;1119;48.288;8.726;2023-04-24T13:00:18;7.40;;;4.43;;
2225;SDS011;1119;48.288;8.726;2023-04-24T13:03:07;6.27;;;5.73;;
2225;SDS011;1119;48.288;8.726;2023-04-24T13:05:55;5.70;;;5.20;;
2225;SDS011;1119;48.288;8.726;2023-04-24T13:08:43;6.90;;;6.20;;
2225;SDS011;1119;48.288;8.726;2023-04-24T13:11:30;6.93;;;5.70;;
2225;SDS011;1119;48.288;8.726;2023-04-24T13:14:18;10.60;;;7.70;;
2225;SDS011;1119;48.288;8.726;2023-04-24T13:17:06;6.73;;;6.03;;
2225;SDS011;1119;48.288;8.726;2023-04-24T13:19:56;6.27;;;5.70;;
2225;SDS011;1119;48.288;8.726;2023-04-24T13:22:44;7.60;;;6.47;;
2225;SDS011;1119;48.288;8.726;2023-04-24T13:25:35;8.70;;;7.03;;
2225;SDS011;1119;48.288;8.726;2023-04-24T13:28:24;7.77;;;5.63;;
2225;SDS011;1119;48.288;8.726;2023-04-24T13:31:12;19.33;;;6.33;;
2225;SDS011;1119;48.288;8.726;2023-04-24T13:34:00;7.13;;;6.43;;
2225;SDS011;1119;48.288;8.726;2023-04-24T13:36:50;6.70;;;6.00;;
2225;SDS011;1119;48.288;8.726;2023-04-24T13:39:41;8.33;;;6.80;;
2225;SDS011;1119;48.288;8.726;2023-04-24T13:42:28;9.73;;;7.40;;
2225;SDS011;1119;48.288;8.726;2023-04-24T13:45:16;10.60;;;6.90;;
2225;SDS011;1119;48.288;8.726;2023-04-24T13:48:04;7.63;;;6.20;;
2225;SDS011;1119;48.288;8.726;2023-04-24T13:50:51;10.10;;;6.30;;
2225;SDS011;1119;48.288;8.726;2023-04-24T13:53:40;13.60;;;9.23;;
2225;SDS011;1119;48.288;8.726;2023-04-24T13:56:28;7.20;;;6.60;;
2225;SDS011;1119;48.288;8.726;2023-04-24T13:59:15;7.10;;;6.50;;
2225;SDS011;1119;48.288;8.726;2023-04-24T14:02:03;19.43;;;14.93;;
2225;SDS011;1119;48.288;8.726;2023-04-24T14:04:51;18.37;;;17.13;;
2225;SDS011;1119;48.288;8.726;2023-04-24T14:07:38;23.27;;;21.60;;
2225;SDS011;1119;48.288;8.726;2023-04-24T14:10:27;12.27;;;11.33;;
2225;SDS011;1119;48.288;8.726;2023-04-24T14:13:15;14.33;;;13.17;;
2225;SDS011;1119;48.288;8.726;2023-04-24T14:16:05;11.23;;;8.63;;
2225;SDS011;1119;48.288;8.726;2023-04-24T14:18:53;11.30;;;10.30;;
2225;SDS011;1119;48.288;8.726;2023-04-24T14:21:41;14.70;;;13.70;;
2225;SDS011;1119;48.288;8.726;2023-04-24T14:24:29;11.67;;;10.70;;
2225;SDS011;1119;48.288;8.726;2023-04-24T14:27:18;11.10;;;10.20;;
2225;SDS011;1119;48.288;8.726;2023-04-24T14:30:06;14.70;;;10.83;;
2225;SDS011;1119;48.288;8.726;2023-04-24T14:32:55;15.80;;;11.30;;
2225;SDS011;1119;48.288;8.726;2023-04-24T14:35:43;8.80;;;7.83;;
2225;SDS011;1119;48.288;8.726;2023-04-24T14:38:30;14.53;;;10.60;;
2225;SDS011;1119;48.288;8.726;2023-04-24T14:41:18;8.13;;;7.47;;
2225;SDS011;1119;48.288;8.726;2023-04-24T14:44:07;9.57;;;8.70;;
2225;SDS011;1119;48.288;8.726;2023-04-24T14:46:55;13.30;;;11.90;;
2225;SDS011;1119;48.288;8.726;2023-04-24T14:49:42;10.33;;;9.40;;
2225;SDS011;1119;48.288;8.726;2023-04-24T14:52:30;11.87;;;10.70;;
2225;SDS011;1119;48.288;8.726;2023-04-24T14:55:18;9.37;;;8.60;;
2225;SDS011;1119;48.288;8.726;2023-04-24T14:58:06;11.63;;;10.63;;
2225;SDS011;1119;48.288;8.726;2023-04-24T15:00:55;16.80;;;15.67;;
2225;SDS011;1119;48.288;8.726;2023-04-24T15:03:42;12.53;;;11.50;;
2225;SDS011;1119;48.288;8.726;2023-04-24T15:06:30;9.47;;;8.57;;
2225;SDS011;1119;48.288;8.726;2023-04-24T15:09:18;13.53;;;12.23;;
2225;SDS011;1119;48.288;8.726;2023-04-24T15:12:06;15.03;;;13.90;;
2225;SDS011;1119;48.288;8.726;2023-04-24T15:14:53;17.30;;;16.03;;
2225;SDS011;1119;48.288;8.726;2023-04-24T15:17:42;13.27;;;12.10;;
2225;SDS011;1119;48.288;8.726;2023-04-24T15:20:30;14.07;;;8.87;;
2225;SDS011;1119;48.288;8.726;2023-04-24T15:23:18;15.70;;;9.30;;
2225;SDS011;1119;48.288;8.726;2023-04-24T15:26:06;9.63;;;7.20;;
2225;SDS011;1119;48.288;8.726;2023-04-24T15:28:53;6.67;;;5.97;;
2225;SDS011;1119;48.288;8.726;2023-04-24T15:31:41;8.53;;;6.53;;
2225;SDS011;1119;48.288;8.726;2023-04-24T15:34:30;10.57;;;5.53;;
2225;SDS011;1119;48.288;8.726;2023-04-24T15:37:18;7.83;;;6.40;;
2225;SDS011;1119;48.288;8.726;2023-04-24T15:40:06;6.80;;;5.90;;
2225;SDS011;1119;48.288;8.726;2023-04-24T15:42:56;8.80;;;7.97;;
2225;SDS011;1119;48.288;8.726;2023-04-24T15:45:44;10.10;;;9.20;;
2225;SDS011;1119;48.288;8.726;2023-04-24T15:48:32;6.63;;;5.93;;
2225;SDS011;1119;48.288;8.726;2023-04-24T15:51:22;6.80;;;6.10;;
2225;SDS011;1119;48.288;8.726;2023-04-24T15:54:10;7.10;;;6.30;;
2225;SDS011;1119;48.288;8.726;2023-04-24T15:56:57;7.53;;;6.83;;
2225;SDS011;1119;48.288;8.726;2023-04-24T15:59:46;10.90;;;10.00;;
2225;SDS011;1119;48.288;8.726;2023-04-24T16:02:33;22.50;;;20.43;;
2225;SDS011;1119;48.288;8.726;2023-04-24T16:05:21;15.53;;;12.20;;
2225;SDS011;1119;48.288;8.726;2023-04-24T16:08:10;12.17;;;10.43;;
2225;SDS011;1119;48.288;8.726;2023-04-24T16:10:58;11.60;;;10.73;;
2225;SDS011;1119;48.288;8.726;2023-04-24T16:13:46;15.27;;;14.03;;
2225;SDS011;1119;48.288;8.726;2023-04-24T16:16:34;11.43;;;10.30;;
2225;SDS011;1119;48.288;8.726;2023-04-24T16:19:21;14.17;;;12.97;;
2225;SDS011;1119;48.288;8.726;2023-04-24T16:22:09;14.27;;;12.80;;
2225;SDS011;1119;48.288;8.726;2023-04-24T16:24:58;13.00;;;11.90;;
2225;SDS011;1119;48.288;8.726;2023-04-24T16:27:45;12.63;;;10.53;;
2225;SDS011;1119;48.288;8.726;2023-04-24T16:30:33;13.20;;;12.10;;
2225;SDS011;1119;48.288;8.726;2023-04-24T16:33:21;12.57;;;11.43;;
2225;SDS011;1119;48.288;8.726;2023-04-24T16:36:11;12.03;;;10.93;;
2225;SDS011;1119;48.288;8.726;2023-04-24T16:38:59;11.30;;;10.17;;
2225;SDS011;1119;48.288;8.726;2023-04-24T16:41:50;11.90;;;10.57;;
2225;SDS011;1119;48.288;8.726;2023-04-24T16:44:39;13.03;;;12.00;;
2225;SDS011;1119;48.288;8.726;2023-04-24T16:47:27;14.07;;;12.97;;
2225;SDS011;1119;48.288;8.726;2023-04-24T16:50:15;12.53;;;11.73;;
2225;SDS011;1119;48.288;8.726;2023-04-24T16:53:03;10.67;;;9.77;;
2225;SDS011;1119;48.288;8.726;2023-04-24T16:55:51;10.07;;;9.07;;
2225;SDS011;1119;48.288;8.726;2023-04-24T16:58:40;11.63;;;9.73;;
2225;SDS011;1119;48.288;8.726;2023-04-24T17:01:27;8.10;;;7.13;;
2225;SDS011;1119;48.288;8.726;2023-04-24T17:04:15;10.57;;;9.50;;
2225;SDS011;1119;48.288;8.726;2023-04-24T17:07:03;5.53;;;4.60;;
2225;SDS011;1119;48.288;8.726;2023-04-24T17:09:50;5.17;;;4.67;;
2225;SDS011;1119;48.288;8.726;2023-04-24T17:12:38;5.57;;;4.97;;
2225;SDS011;1119;48.288;8.726;2023-04-24T17:15:27;8.30;;;6.10;;
2225;SDS011;1119;48.288;8.726;2023-04-24T17:18:15;6.00;;;5.10;;
2225;SDS011;1119;48.288;8.726;2023-04-24T17:21:03;8.00;;;6.83;;
2225;SDS011;1119;48.288;8.726;2023-04-24T17:23:51;8.60;;;5.97;;
2225;SDS011;1119;48.288;8.726;2023-04-24T17:26:38;12.80;;;8.03;;
2225;SDS011;1119;48.288;8.726;2023-04-24T17:32:24;6.77;;;6.17;;
2225;SDS011;1119;48.288;8.726;2023-04-24T17:35:12;6.00;;;4.77;;